sensor_id;sensor_type;location;lat;lon;timestamp;P1;durP1;ratioP1;P2;durP2;ratioP2
73776;SDS011;62088;50.240;2.696;2023-02-28T00:01:23;13.38;;;7.05;;
73776;SDS011;62088;50.240;2.696;2023-02-28T00:03:51;12.57;;;6.03;;
73776;SDS011;62088;50.240;2.696;2023-02-28T00:06:18;11.32;;;6.03;;
73776;SDS011;62088;50.240;2.696;2023-02-28T00:08:46;13.38;;;6.93;;
73776;SDS011;62088;50.240;2.696;2023-02-28T00:11:14;10.65;;;6.68;;
73776;SDS011;62088;50.240;2.696;2023-02-28T00:13:42;11.15;;;5.78;;
73776;SDS011;62088;50.240;2.696;2023-02-28T00:16:20;11.07;;;6.85;;
73776;SDS011;62088;50.240;2.696;2023-02-28T00:18:48;15.40;;;7.22;;
73776;SDS011;62088;50.240;2.696;2023-02-28T00:21:16;12.45;;;6.78;;
73776;SDS011;62088;50.240;2.696;2023-02-28T00:23:44;8.10;;;5.45;;
73776;SDS011;62088;50.240;2.696;2023-02-28T00:26:11;11.75;;;7.15;;
73776;SDS011;62088;50.240;2.696;2023-02-28T00:28:41;12.63;;;7.75;;
73776;SDS011;62088;50.240;2.696;2023-02-28T00:31:08;16.10;;;7.57;;
73776;SDS011;62088;50.240;2.696;2023-02-28T00:33:35;10.93;;;6.10;;
73776;SDS011;62088;50.240;2.696;2023-02-28T00:36:03;10.25;;;6.07;;
73776;SDS011;62088;50.240;2.696;2023-02-28T00:38:34;10.85;;;7.18;;
73776;SDS011;62088;50.240;2.696;2023-02-28T00:41:02;11.63;;;7.22;;
73776;SDS011;62088;50.240;2.696;2023-02-28T00:43:31;10.63;;;7.13;;
73776;SDS011;62088;50.240;2.696;2023-02-28T00:46:03;15.02;;;8.88;;
73776;SDS011;62088;50.240;2.696;2023-02-28T00:48:31;15.25;;;7.68;;
73776;SDS011;62088;50.240;2.696;2023-02-28T00:50:58;29.63;;;9.65;;
73776;SDS011;62088;50.240;2.696;2023-02-28T00:53:26;12.82;;;7.28;;
73776;SDS011;62088;50.240;2.696;2023-02-28T00:55:56;13.52;;;8.40;;
73776;SDS011;62088;50.240;2.696;2023-02-28T00:58:24;13.48;;;9.23;;
73776;SDS011;62088;50.240;2.696;2023-02-28T01:00:51;14.52;;;9.05;;
73776;SDS011;62088;50.240;2.696;2023-02-28T01:03:20;13.07;;;8.45;;
73776;SDS011;62088;50.240;2.696;2023-02-28T01:05:48;13.32;;;8.10;;
73776;SDS011;62088;50.240;2.696;2023-02-28T01:08:16;13.20;;;7.97;;
73776;SDS011;62088;50.240;2.696;2023-02-28T01:10:43;11.88;;;7.38;;
73776;SDS011;62088;50.240;2.696;2023-02-28T01:13:11;12.98;;;7.28;;
73776;SDS011;62088;50.240;2.696;2023-02-28T01:15:40;11.27;;;7.13;;
73776;SDS011;62088;50.240;2.696;2023-02-28T01:18:11;15.45;;;8.68;;
73776;SDS011;62088;50.240;2.696;2023-02-28T01:20:38;15.45;;;7.75;;
73776;SDS011;62088;50.240;2.696;2023-02-28T01:23:05;16.17;;;7.28;;
73776;SDS011;62088;50.240;2.696;2023-02-28T01:25:36;9.52;;;6.38;;
73776;SDS011;62088;50.240;2.696;2023-02-28T01:28:04;13.50;;;7.57;;
73776;SDS011;62088;50.240;2.696;2023-02-28T01:30:33;12.55;;;7.25;;
73776;SDS011;62088;50.240;2.696;2023-02-28T01:33:00;12.90;;;6.82;;
73776;SDS011;62088;50.240;2.696;2023-02-28T01:35:27;14.15;;;7.25;;
73776;SDS011;62088;50.240;2.696;2023-02-28T01:37:54;10.75;;;7.18;;
73776;SDS011;62088;50.240;2.696;2023-02-28T01:40:26;13.15;;;7.68;;
73776;SDS011;62088;50.240;2.696;2023-02-28T01:42:54;11.02;;;7.07;;
73776;SDS011;62088;50.240;2.696;2023-02-28T01:47:50;11.90;;;6.22;;
73776;SDS011;62088;50.240;2.696;2023-02-28T01:50:21;12.48;;;7.40;;
73776;SDS011;62088;50.240;2.696;2023-02-28T01:52:51;9.48;;;6.63;;
73776;SDS011;62088;50.240;2.696;2023-02-28T01:55:23;9.13;;;6.00;;
73776;SDS011;62088;50.240;2.696;2023-02-28T01:57:57;11.65;;;7.15;;
73776;SDS011;62088;50.240;2.696;2023-02-28T02:00:29;11.23;;;6.63;;
73776;SDS011;62088;50.240;2.696;2023-02-28T02:02:57;12.27;;;6.88;;
73776;SDS011;62088;50.240;2.696;2023-02-28T02:05:30;11.93;;;7.10;;
73776;SDS011;62088;50.240;2.696;2023-02-28T02:08:07;13.40;;;7.50;;
73776;SDS011;62088;50.240;2.696;2023-02-28T02:10:42;9.48;;;6.35;;
73776;SDS011;62088;50.240;2.696;2023-02-28T02:13:30;12.65;;;7.50;;
73776;SDS011;62088;50.240;2.696;2023-02-28T02:17:10;12.98;;;7.57;;
73776;SDS011;62088;50.240;2.696;2023-02-28T02:19:08;16.38;;;7.63;;
73776;SDS011;62088;50.240;2.696;2023-02-28T02:35:55;14.23;;;8.75;;
73776;SDS011;62088;50.240;2.696;2023-02-28T02:38:45;14.55;;;7.70;;
73776;SDS011;62088;50.240;2.696;2023-02-28T02:41:38;15.43;;;7.85;;
73776;SDS011;62088;50.240;2.696;2023-02-28T02:44:22;15.07;;;7.70;;
73776;SDS011;62088;50.240;2.696;2023-02-28T02:46:57;15.95;;;7.55;;
73776;SDS011;62088;50.240;2.696;2023-02-28T02:49:33;12.32;;;8.00;;
73776;SDS011;62088;50.240;2.696;2023-02-28T02:52:03;12.45;;;7.05;;
73776;SDS011;62088;50.240;2.696;2023-02-28T02:54:35;15.07;;;7.20;;
73776;SDS011;62088;50.240;2.696;2023-02-28T02:57:05;11.50;;;7.47;;
73776;SDS011;62088;50.240;2.696;2023-02-28T02:59:37;14.13;;;7.05;;
73776;SDS011;62088;50.240;2.696;2023-02-28T03:02:06;10.25;;;6.88;;
73776;SDS011;62088;50.240;2.696;2023-02-28T03:04:46;12.30;;;6.95;;
73776;SDS011;62088;50.240;2.696;2023-02-28T03:07:20;12.80;;;7.88;;
73776;SDS011;62088;50.240;2.696;2023-02-28T03:09:54;12.57;;;7.05;;
73776;SDS011;62088;50.240;2.696;2023-02-28T03:12:23;11.43;;;7.43;;
73776;SDS011;62088;50.240;2.696;2023-02-28T03:17:59;12.25;;;6.32;;
73776;SDS011;62088;50.240;2.696;2023-02-28T03:20:37;13.63;;;6.88;;
73776;SDS011;62088;50.240;2.696;2023-02-28T03:24:02;11.50;;;7.47;;
73776;SDS011;62088;50.240;2.696;2023-02-28T03:26:25;11.05;;;7.25;;
73776;SDS011;62088;50.240;2.696;2023-02-28T03:29:05;10.23;;;6.47;;
73776;SDS011;62088;50.240;2.696;2023-02-28T03:31:39;11.60;;;7.25;;
73776;SDS011;62088;50.240;2.696;2023-02-28T03:34:19;11.10;;;6.95;;
73776;SDS011;62088;50.240;2.696;2023-02-28T03:36:48;12.10;;;7.32;;
73776;SDS011;62088;50.240;2.696;2023-02-28T03:39:21;10.30;;;6.47;;
73776;SDS011;62088;50.240;2.696;2023-02-28T03:44:32;12.65;;;7.82;;
73776;SDS011;62088;50.240;2.696;2023-02-28T03:47:52;11.20;;;7.53;;
73776;SDS011;62088;50.240;2.696;2023-02-28T03:49:57;10.50;;;6.70;;
73776;SDS011;62088;50.240;2.696;2023-02-28T03:52:36;10.25;;;6.60;;
73776;SDS011;62088;50.240;2.696;2023-02-28T03:55:12;11.13;;;7.38;;
73776;SDS011;62088;50.240;2.696;2023-02-28T03:57:43;10.65;;;6.47;;
73776;SDS011;62088;50.240;2.696;2023-02-28T04:00:30;9.98;;;6.72;;
73776;SDS011;62088;50.240;2.696;2023-02-28T04:03:02;16.10;;;7.55;;
73776;SDS011;62088;50.240;2.696;2023-02-28T04:05:30;12.48;;;7.50;;
73776;SDS011;62088;50.240;2.696;2023-02-28T04:08:05;16.83;;;7.70;;
73776;SDS011;62088;50.240;2.696;2023-02-28T04:10:34;10.15;;;6.30;;
73776;SDS011;62088;50.240;2.696;2023-02-28T04:13:01;12.20;;;7.63;;
73776;SDS011;62088;50.240;2.696;2023-02-28T04:15:28;18.42;;;8.27;;
73776;SDS011;62088;50.240;2.696;2023-02-28T04:17:55;14.65;;;6.78;;
73776;SDS011;62088;50.240;2.696;2023-02-28T04:20:22;18.83;;;8.70;;
73776;SDS011;62088;50.240;2.696;2023-02-28T04:22:49;12.18;;;7.72;;
73776;SDS011;62088;50.240;2.696;2023-02-28T04:25:16;10.98;;;6.93;;
73776;SDS011;62088;50.240;2.696;2023-02-28T04:27:43;16.05;;;8.48;;
73776;SDS011;62088;50.240;2.696;2023-02-28T04:30:11;15.25;;;8.48;;
73776;SDS011;62088;50.240;2.696;2023-02-28T04:32:38;11.45;;;7.35;;
73776;SDS011;62088;50.240;2.696;2023-02-28T04:35:05;14.90;;;8.13;;
73776;SDS011;62088;50.240;2.696;2023-02-28T04:37:33;12.70;;;8.07;;
73776;SDS011;62088;50.240;2.696;2023-02-28T04:40:03;12.68;;;7.57;;
73776;SDS011;62088;50.240;2.696;2023-02-28T04:42:31;13.38;;;8.63;;
73776;SDS011;62088;50.240;2.696;2023-02-28T04:45:02;11.60;;;7.43;;
73776;SDS011;62088;50.240;2.696;2023-02-28T04:47:30;15.25;;;8.57;;
73776;SDS011;62088;50.240;2.696;2023-02-28T04:49:57;13.73;;;8.65;;
73776;SDS011;62088;50.240;2.696;2023-02-28T04:52:24;13.35;;;8.45;;
73776;SDS011;62088;50.240;2.696;2023-02-28T04:54:51;12.68;;;8.65;;
73776;SDS011;62088;50.240;2.696;2023-02-28T04:57:18;14.35;;;8.82;;
73776;SDS011;62088;50.240;2.696;2023-02-28T04:59:45;11.15;;;7.90;;
73776;SDS011;62088;50.240;2.696;2023-02-28T05:02:12;16.92;;;9.43;;
73776;SDS011;62088;50.240;2.696;2023-02-28T05:04:39;12.50;;;8.13;;
73776;SDS011;62088;50.240;2.696;2023-02-28T05:07:06;13.73;;;8.50;;
73776;SDS011;62088;50.240;2.696;2023-02-28T05:09:33;14.68;;;8.50;;
73776;SDS011;62088;50.240;2.696;2023-02-28T05:12:00;15.52;;;9.55;;
73776;SDS011;62088;50.240;2.696;2023-02-28T05:14:27;15.02;;;9.18;;
73776;SDS011;62088;50.240;2.696;2023-02-28T05:16:54;12.27;;;8.52;;
73776;SDS011;62088;50.240;2.696;2023-02-28T05:19:22;12.25;;;8.93;;
73776;SDS011;62088;50.240;2.696;2023-02-28T05:21:50;10.32;;;7.38;;
73776;SDS011;62088;50.240;2.696;2023-02-28T05:24:19;14.30;;;8.25;;
73776;SDS011;62088;50.240;2.696;2023-02-28T05:26:50;11.27;;;7.63;;
73776;SDS011;62088;50.240;2.696;2023-02-28T05:29:19;12.43;;;8.32;;
73776;SDS011;62088;50.240;2.696;2023-02-28T05:31:46;15.52;;;8.40;;
73776;SDS011;62088;50.240;2.696;2023-02-28T05:34:13;17.23;;;8.75;;
73776;SDS011;62088;50.240;2.696;2023-02-28T05:36:42;15.75;;;9.77;;
73776;SDS011;62088;50.240;2.696;2023-02-28T05:39:09;17.42;;;9.45;;
73776;SDS011;62088;50.240;2.696;2023-02-28T05:41:40;13.57;;;10.02;;
73776;SDS011;62088;50.240;2.696;2023-02-28T05:44:08;14.10;;;8.38;;
73776;SDS011;62088;50.240;2.696;2023-02-28T05:46:35;14.55;;;8.48;;
73776;SDS011;62088;50.240;2.696;2023-02-28T05:49:02;16.90;;;9.25;;
73776;SDS011;62088;50.240;2.696;2023-02-28T05:51:29;15.20;;;8.90;;
73776;SDS011;62088;50.240;2.696;2023-02-28T05:53:58;10.88;;;7.82;;
73776;SDS011;62088;50.240;2.696;2023-02-28T05:56:26;12.25;;;8.70;;
73776;SDS011;62088;50.240;2.696;2023-02-28T05:58:54;16.08;;;8.80;;
73776;SDS011;62088;50.240;2.696;2023-02-28T06:04:02;18.17;;;9.45;;
73776;SDS011;62088;50.240;2.696;2023-02-28T06:06:31;16.92;;;10.75;;
73776;SDS011;62088;50.240;2.696;2023-02-28T06:09:05;14.18;;;9.05;;
73776;SDS011;62088;50.240;2.696;2023-02-28T06:11:32;16.35;;;9.35;;
73776;SDS011;62088;50.240;2.696;2023-02-28T06:14:00;16.27;;;9.98;;
73776;SDS011;62088;50.240;2.696;2023-02-28T06:16:28;13.45;;;8.50;;
73776;SDS011;62088;50.240;2.696;2023-02-28T06:19:00;16.67;;;9.73;;
73776;SDS011;62088;50.240;2.696;2023-02-28T06:21:29;22.35;;;9.32;;
73776;SDS011;62088;50.240;2.696;2023-02-28T06:23:57;13.05;;;8.93;;
73776;SDS011;62088;50.240;2.696;2023-02-28T06:26:24;14.30;;;9.38;;
73776;SDS011;62088;50.240;2.696;2023-02-28T06:28:52;12.18;;;8.63;;
73776;SDS011;62088;50.240;2.696;2023-02-28T06:31:20;15.15;;;7.78;;
73776;SDS011;62088;50.240;2.696;2023-02-28T06:33:47;19.10;;;10.75;;
73776;SDS011;62088;50.240;2.696;2023-02-28T06:36:15;19.30;;;9.18;;
73776;SDS011;62088;50.240;2.696;2023-02-28T06:38:43;18.30;;;9.50;;
73776;SDS011;62088;50.240;2.696;2023-02-28T06:41:11;17.70;;;11.40;;
73776;SDS011;62088;50.240;2.696;2023-02-28T06:43:40;16.65;;;10.90;;
73776;SDS011;62088;50.240;2.696;2023-02-28T06:46:08;19.52;;;10.50;;
73776;SDS011;62088;50.240;2.696;2023-02-28T06:48:38;18.10;;;10.30;;
73776;SDS011;62088;50.240;2.696;2023-02-28T06:51:10;17.38;;;9.38;;
73776;SDS011;62088;50.240;2.696;2023-02-28T06:53:40;17.25;;;9.45;;
73776;SDS011;62088;50.240;2.696;2023-02-28T06:56:08;15.52;;;10.95;;
73776;SDS011;62088;50.240;2.696;2023-02-28T06:58:37;16.80;;;11.02;;
73776;SDS011;62088;50.240;2.696;2023-02-28T07:01:06;17.60;;;11.07;;
73776;SDS011;62088;50.240;2.696;2023-02-28T07:03:34;18.55;;;11.73;;
73776;SDS011;62088;50.240;2.696;2023-02-28T07:06:02;16.77;;;10.35;;
73776;SDS011;62088;50.240;2.696;2023-02-28T07:08:30;16.58;;;11.57;;
73776;SDS011;62088;50.240;2.696;2023-02-28T07:10:59;19.00;;;11.77;;
73776;SDS011;62088;50.240;2.696;2023-02-28T07:13:26;23.23;;;12.02;;
73776;SDS011;62088;50.240;2.696;2023-02-28T07:15:56;19.60;;;11.48;;
73776;SDS011;62088;50.240;2.696;2023-02-28T07:18:26;17.50;;;10.40;;
73776;SDS011;62088;50.240;2.696;2023-02-28T07:20:54;17.88;;;10.52;;
73776;SDS011;62088;50.240;2.696;2023-02-28T07:23:21;16.83;;;12.18;;
73776;SDS011;62088;50.240;2.696;2023-02-28T07:25:49;20.48;;;12.55;;
73776;SDS011;62088;50.240;2.696;2023-02-28T07:28:16;16.55;;;11.70;;
73776;SDS011;62088;50.240;2.696;2023-02-28T07:30:43;20.10;;;12.40;;
73776;SDS011;62088;50.240;2.696;2023-02-28T07:33:10;19.05;;;11.27;;
73776;SDS011;62088;50.240;2.696;2023-02-28T07:35:37;21.13;;;12.10;;
73776;SDS011;62088;50.240;2.696;2023-02-28T07:38:04;17.48;;;11.93;;
73776;SDS011;62088;50.240;2.696;2023-02-28T07:40:34;17.00;;;12.27;;
73776;SDS011;62088;50.240;2.696;2023-02-28T07:43:02;21.45;;;12.63;;
73776;SDS011;62088;50.240;2.696;2023-02-28T07:45:30;17.73;;;11.68;;
73776;SDS011;62088;50.240;2.696;2023-02-28T07:48:01;17.92;;;11.95;;
73776;SDS011;62088;50.240;2.696;2023-02-28T07:50:28;24.50;;;13.43;;
73776;SDS011;62088;50.240;2.696;2023-02-28T07:52:57;22.00;;;13.20;;
73776;SDS011;62088;50.240;2.696;2023-02-28T07:55:25;21.27;;;12.10;;
73776;SDS011;62088;50.240;2.696;2023-02-28T07:57:53;20.88;;;13.13;;
73776;SDS011;62088;50.240;2.696;2023-02-28T08:00:20;18.80;;;12.32;;
73776;SDS011;62088;50.240;2.696;2023-02-28T08:02:48;23.00;;;12.27;;
73776;SDS011;62088;50.240;2.696;2023-02-28T08:05:15;20.83;;;12.60;;
73776;SDS011;62088;50.240;2.696;2023-02-28T08:07:45;21.23;;;12.98;;
73776;SDS011;62088;50.240;2.696;2023-02-28T08:10:13;18.15;;;11.85;;
73776;SDS011;62088;50.240;2.696;2023-02-28T08:12:41;17.08;;;10.52;;
73776;SDS011;62088;50.240;2.696;2023-02-28T08:15:08;21.35;;;12.40;;
73776;SDS011;62088;50.240;2.696;2023-02-28T08:17:35;22.55;;;12.50;;
73776;SDS011;62088;50.240;2.696;2023-02-28T08:20:02;22.98;;;12.60;;
73776;SDS011;62088;50.240;2.696;2023-02-28T08:22:30;16.77;;;12.57;;
73776;SDS011;62088;50.240;2.696;2023-02-28T08:24:57;21.23;;;12.75;;
73776;SDS011;62088;50.240;2.696;2023-02-28T08:27:24;26.50;;;16.00;;
73776;SDS011;62088;50.240;2.696;2023-02-28T08:29:51;20.60;;;12.45;;
73776;SDS011;62088;50.240;2.696;2023-02-28T08:32:18;18.65;;;11.65;;
73776;SDS011;62088;50.240;2.696;2023-02-28T08:34:55;19.83;;;12.27;;
73776;SDS011;62088;50.240;2.696;2023-02-28T08:37:22;25.05;;;14.95;;
73776;SDS011;62088;50.240;2.696;2023-02-28T08:39:49;19.65;;;12.80;;
73776;SDS011;62088;50.240;2.696;2023-02-28T08:42:21;23.00;;;14.20;;
73776;SDS011;62088;50.240;2.696;2023-02-28T08:44:48;23.75;;;15.85;;
73776;SDS011;62088;50.240;2.696;2023-02-28T08:47:15;23.73;;;14.07;;
73776;SDS011;62088;50.240;2.696;2023-02-28T08:49:42;31.15;;;18.75;;
73776;SDS011;62088;50.240;2.696;2023-02-28T08:52:09;22.17;;;12.75;;
73776;SDS011;62088;50.240;2.696;2023-02-28T08:54:36;25.90;;;15.30;;
73776;SDS011;62088;50.240;2.696;2023-02-28T08:57:03;20.10;;;13.48;;
73776;SDS011;62088;50.240;2.696;2023-02-28T08:59:31;19.30;;;11.50;;
73776;SDS011;62088;50.240;2.696;2023-02-28T09:01:58;21.50;;;11.93;;
73776;SDS011;62088;50.240;2.696;2023-02-28T09:04:25;17.67;;;10.93;;
73776;SDS011;62088;50.240;2.696;2023-02-28T09:06:53;20.10;;;10.98;;
73776;SDS011;62088;50.240;2.696;2023-02-28T09:09:20;21.83;;;11.52;;
73776;SDS011;62088;50.240;2.696;2023-02-28T09:11:47;16.25;;;10.23;;
73776;SDS011;62088;50.240;2.696;2023-02-28T09:14:14;14.63;;;10.05;;
73776;SDS011;62088;50.240;2.696;2023-02-28T09:16:41;20.33;;;10.48;;
73776;SDS011;62088;50.240;2.696;2023-02-28T09:19:10;21.25;;;12.90;;
73776;SDS011;62088;50.240;2.696;2023-02-28T09:21:38;23.48;;;14.13;;
73776;SDS011;62088;50.240;2.696;2023-02-28T09:24:05;27.90;;;15.13;;
73776;SDS011;62088;50.240;2.696;2023-02-28T09:26:33;30.65;;;15.65;;
73776;SDS011;62088;50.240;2.696;2023-02-28T09:29:12;29.35;;;16.83;;
73776;SDS011;62088;50.240;2.696;2023-02-28T09:31:43;45.08;;;21.80;;
73776;SDS011;62088;50.240;2.696;2023-02-28T09:34:10;21.92;;;12.35;;
73776;SDS011;62088;50.240;2.696;2023-02-28T09:36:37;26.33;;;15.25;;
73776;SDS011;62088;50.240;2.696;2023-02-28T09:39:11;24.75;;;13.07;;
73776;SDS011;62088;50.240;2.696;2023-02-28T09:41:41;20.88;;;11.77;;
73776;SDS011;62088;50.240;2.696;2023-02-28T09:47:01;21.23;;;11.63;;
73776;SDS011;62088;50.240;2.696;2023-02-28T09:49:47;16.95;;;10.52;;
73776;SDS011;62088;50.240;2.696;2023-02-28T09:52:17;19.63;;;9.75;;
73776;SDS011;62088;50.240;2.696;2023-02-28T09:54:46;13.80;;;8.25;;
73776;SDS011;62088;50.240;2.696;2023-02-28T10:05:22;16.40;;;8.35;;
73776;SDS011;62088;50.240;2.696;2023-02-28T10:08:10;12.07;;;7.70;;
73776;SDS011;62088;50.240;2.696;2023-02-28T10:10:45;13.57;;;7.07;;
73776;SDS011;62088;50.240;2.696;2023-02-28T10:19:04;15.55;;;7.65;;
73776;SDS011;62088;50.240;2.696;2023-02-28T10:21:39;12.13;;;7.13;;
73776;SDS011;62088;50.240;2.696;2023-02-28T10:24:23;13.48;;;7.20;;
73776;SDS011;62088;50.240;2.696;2023-02-28T10:26:56;12.80;;;7.32;;
73776;SDS011;62088;50.240;2.696;2023-02-28T10:29:27;14.40;;;8.25;;
73776;SDS011;62088;50.240;2.696;2023-02-28T10:31:58;11.85;;;7.28;;
73776;SDS011;62088;50.240;2.696;2023-02-28T10:34:29;12.00;;;8.07;;
73776;SDS011;62088;50.240;2.696;2023-02-28T10:36:56;12.80;;;7.00;;
73776;SDS011;62088;50.240;2.696;2023-02-28T10:42:21;12.38;;;6.72;;
73776;SDS011;62088;50.240;2.696;2023-02-28T10:45:06;11.77;;;6.35;;
73776;SDS011;62088;50.240;2.696;2023-02-28T10:47:40;8.90;;;4.95;;
73776;SDS011;62088;50.240;2.696;2023-02-28T10:50:26;10.40;;;5.72;;
73776;SDS011;62088;50.240;2.696;2023-02-28T10:52:53;8.25;;;5.45;;
73776;SDS011;62088;50.240;2.696;2023-02-28T10:55:22;11.57;;;5.85;;
73776;SDS011;62088;50.240;2.696;2023-02-28T10:57:51;10.20;;;5.70;;
73776;SDS011;62088;50.240;2.696;2023-02-28T11:00:20;9.38;;;4.70;;
73776;SDS011;62088;50.240;2.696;2023-02-28T11:02:57;10.90;;;4.43;;
73776;SDS011;62088;50.240;2.696;2023-02-28T11:05:34;7.57;;;3.70;;
73776;SDS011;62088;50.240;2.696;2023-02-28T11:08:20;7.75;;;3.97;;
73776;SDS011;62088;50.240;2.696;2023-02-28T11:10:53;8.95;;;4.30;;
73776;SDS011;62088;50.240;2.696;2023-02-28T11:13:26;9.63;;;6.57;;
73776;SDS011;62088;50.240;2.696;2023-02-28T11:16:01;10.90;;;5.32;;
73776;SDS011;62088;50.240;2.696;2023-02-28T11:18:36;10.82;;;6.32;;
73776;SDS011;62088;50.240;2.696;2023-02-28T11:21:14;12.15;;;6.45;;
73776;SDS011;62088;50.240;2.696;2023-02-28T11:23:47;17.85;;;9.18;;
73776;SDS011;62088;50.240;2.696;2023-02-28T11:26:36;15.27;;;10.57;;
73776;SDS011;62088;50.240;2.696;2023-02-28T11:29:10;12.77;;;7.00;;
73776;SDS011;62088;50.240;2.696;2023-02-28T11:31:42;7.90;;;5.05;;
73776;SDS011;62088;50.240;2.696;2023-02-28T11:34:22;13.35;;;5.65;;
73776;SDS011;62088;50.240;2.696;2023-02-28T11:36:51;9.40;;;4.90;;
73776;SDS011;62088;50.240;2.696;2023-02-28T11:39:21;9.02;;;5.05;;
73776;SDS011;62088;50.240;2.696;2023-02-28T11:58:11;8.10;;;5.00;;
73776;SDS011;62088;50.240;2.696;2023-02-28T12:01:12;12.68;;;4.95;;
73776;SDS011;62088;50.240;2.696;2023-02-28T12:11:55;9.57;;;4.80;;
73776;SDS011;62088;50.240;2.696;2023-02-28T12:25:48;7.57;;;4.53;;
73776;SDS011;62088;50.240;2.696;2023-02-28T12:28:17;9.80;;;4.32;;
73776;SDS011;62088;50.240;2.696;2023-02-28T12:33:40;8.02;;;4.90;;
73776;SDS011;62088;50.240;2.696;2023-02-28T12:36:11;12.40;;;5.13;;
73776;SDS011;62088;50.240;2.696;2023-02-28T12:38:45;8.23;;;4.20;;
73776;SDS011;62088;50.240;2.696;2023-02-28T12:41:29;9.95;;;4.60;;
73776;SDS011;62088;50.240;2.696;2023-02-28T12:44:01;7.18;;;4.45;;
73776;SDS011;62088;50.240;2.696;2023-02-28T12:46:33;8.27;;;4.03;;
73776;SDS011;62088;50.240;2.696;2023-02-28T12:49:06;7.95;;;4.68;;
73776;SDS011;62088;50.240;2.696;2023-02-28T12:51:38;8.18;;;3.92;;
73776;SDS011;62088;50.240;2.696;2023-02-28T13:04:43;8.20;;;4.15;;
73776;SDS011;62088;50.240;2.696;2023-02-28T13:13:15;9.45;;;4.28;;
73776;SDS011;62088;50.240;2.696;2023-02-28T13:18:36;7.53;;;4.05;;
73776;SDS011;62088;50.240;2.696;2023-02-28T13:21:07;6.43;;;3.50;;
73776;SDS011;62088;50.240;2.696;2023-02-28T13:23:37;8.27;;;3.95;;
73776;SDS011;62088;50.240;2.696;2023-02-28T13:26:08;11.10;;;4.28;;
73776;SDS011;62088;50.240;2.696;2023-02-28T13:31:24;6.50;;;3.70;;
73776;SDS011;62088;50.240;2.696;2023-02-28T13:38:56;4.88;;;2.97;;
73776;SDS011;62088;50.240;2.696;2023-02-28T13:44:03;6.47;;;2.65;;
73776;SDS011;62088;50.240;2.696;2023-02-28T13:49:45;20.52;;;9.25;;
73776;SDS011;62088;50.240;2.696;2023-02-28T13:52:15;10.80;;;6.15;;
73776;SDS011;62088;50.240;2.696;2023-02-28T14:04:09;21.30;;;11.20;;
73776;SDS011;62088;50.240;2.696;2023-02-28T14:06:15;18.13;;;10.25;;
73776;SDS011;62088;50.240;2.696;2023-02-28T14:11:39;19.67;;;12.95;;
73776;SDS011;62088;50.240;2.696;2023-02-28T14:14:09;16.25;;;7.93;;
73776;SDS011;62088;50.240;2.696;2023-02-28T14:16:56;11.48;;;7.10;;
73776;SDS011;62088;50.240;2.696;2023-02-28T14:19:27;6.05;;;3.85;;
73776;SDS011;62088;50.240;2.696;2023-02-28T14:27:45;6.80;;;3.20;;
73776;SDS011;62088;50.240;2.696;2023-02-28T14:30:26;8.57;;;4.25;;
73776;SDS011;62088;50.240;2.696;2023-02-28T14:33:11;12.13;;;4.75;;
73776;SDS011;62088;50.240;2.696;2023-02-28T14:38:45;5.63;;;3.97;;
73776;SDS011;62088;50.240;2.696;2023-02-28T14:41:29;6.63;;;3.88;;
73776;SDS011;62088;50.240;2.696;2023-02-28T14:44:02;7.38;;;3.70;;
73776;SDS011;62088;50.240;2.696;2023-02-28T14:46:39;8.15;;;3.67;;
73776;SDS011;62088;50.240;2.696;2023-02-28T14:49:18;5.35;;;3.10;;
73776;SDS011;62088;50.240;2.696;2023-02-28T14:52:13;5.43;;;3.13;;
73776;SDS011;62088;50.240;2.696;2023-02-28T14:54:44;5.05;;;3.10;;
73776;SDS011;62088;50.240;2.696;2023-02-28T14:57:22;9.68;;;3.55;;
73776;SDS011;62088;50.240;2.696;2023-02-28T15:02:33;6.60;;;3.38;;
73776;SDS011;62088;50.240;2.696;2023-02-28T15:05:10;5.22;;;2.90;;
73776;SDS011;62088;50.240;2.696;2023-02-28T15:07:46;5.47;;;3.50;;
73776;SDS011;62088;50.240;2.696;2023-02-28T15:12:49;11.02;;;6.88;;
73776;SDS011;62088;50.240;2.696;2023-02-28T15:15:37;7.57;;;4.57;;
73776;SDS011;62088;50.240;2.696;2023-02-28T15:18:31;4.95;;;3.03;;
73776;SDS011;62088;50.240;2.696;2023-02-28T15:21:21;6.78;;;3.50;;
73776;SDS011;62088;50.240;2.696;2023-02-28T15:24:07;8.00;;;3.50;;
73776;SDS011;62088;50.240;2.696;2023-02-28T15:26:41;5.35;;;3.40;;
73776;SDS011;62088;50.240;2.696;2023-02-28T15:29:13;6.30;;;3.47;;
73776;SDS011;62088;50.240;2.696;2023-02-28T15:31:47;7.07;;;3.73;;
73776;SDS011;62088;50.240;2.696;2023-02-28T15:37:57;5.85;;;3.65;;
73776;SDS011;62088;50.240;2.696;2023-02-28T15:40:04;7.50;;;3.85;;
73776;SDS011;62088;50.240;2.696;2023-02-28T15:42:39;7.10;;;3.90;;
73776;SDS011;62088;50.240;2.696;2023-02-28T15:45:06;6.97;;;3.88;;
73776;SDS011;62088;50.240;2.696;2023-02-28T15:47:54;8.10;;;3.78;;
73776;SDS011;62088;50.240;2.696;2023-02-28T15:50:27;9.13;;;3.72;;
73776;SDS011;62088;50.240;2.696;2023-02-28T15:52:57;9.73;;;4.05;;
73776;SDS011;62088;50.240;2.696;2023-02-28T15:55:26;6.97;;;3.53;;
73776;SDS011;62088;50.240;2.696;2023-02-28T15:57:57;8.60;;;4.05;;
73776;SDS011;62088;50.240;2.696;2023-02-28T16:00:29;8.00;;;4.03;;
73776;SDS011;62088;50.240;2.696;2023-02-28T16:02:59;6.40;;;3.67;;
73776;SDS011;62088;50.240;2.696;2023-02-28T16:05:29;7.10;;;4.00;;
73776;SDS011;62088;50.240;2.696;2023-02-28T16:07:59;7.50;;;3.80;;
73776;SDS011;62088;50.240;2.696;2023-02-28T16:10:40;5.10;;;3.30;;
73776;SDS011;62088;50.240;2.696;2023-02-28T16:13:08;5.60;;;3.40;;
73776;SDS011;62088;50.240;2.696;2023-02-28T16:15:38;6.03;;;3.92;;
73776;SDS011;62088;50.240;2.696;2023-02-28T16:18:10;5.97;;;3.67;;
73776;SDS011;62088;50.240;2.696;2023-02-28T16:20:38;5.22;;;3.55;;
73776;SDS011;62088;50.240;2.696;2023-02-28T16:23:05;8.07;;;4.10;;
73776;SDS011;62088;50.240;2.696;2023-02-28T16:25:38;9.32;;;5.25;;
73776;SDS011;62088;50.240;2.696;2023-02-28T16:28:20;8.60;;;5.30;;
73776;SDS011;62088;50.240;2.696;2023-02-28T16:31:02;8.85;;;4.18;;
73776;SDS011;62088;50.240;2.696;2023-02-28T16:33:31;8.00;;;4.65;;
73776;SDS011;62088;50.240;2.696;2023-02-28T16:35:59;10.35;;;4.28;;
73776;SDS011;62088;50.240;2.696;2023-02-28T16:38:26;9.25;;;4.50;;
73776;SDS011;62088;50.240;2.696;2023-02-28T16:40:54;7.45;;;3.95;;
73776;SDS011;62088;50.240;2.696;2023-02-28T16:43:24;8.07;;;3.90;;
73776;SDS011;62088;50.240;2.696;2023-02-28T16:45:56;7.03;;;3.80;;
73776;SDS011;62088;50.240;2.696;2023-02-28T16:48:26;5.93;;;3.90;;
73776;SDS011;62088;50.240;2.696;2023-02-28T16:50:53;10.60;;;4.60;;
73776;SDS011;62088;50.240;2.696;2023-02-28T16:53:20;10.90;;;4.13;;
73776;SDS011;62088;50.240;2.696;2023-02-28T16:55:47;8.40;;;3.90;;
73776;SDS011;62088;50.240;2.696;2023-02-28T16:58:17;5.70;;;3.70;;
73776;SDS011;62088;50.240;2.696;2023-02-28T17:00:45;7.75;;;3.88;;
73776;SDS011;62088;50.240;2.696;2023-02-28T17:03:20;7.10;;;4.07;;
73776;SDS011;62088;50.240;2.696;2023-02-28T17:05:59;6.07;;;3.85;;
73776;SDS011;62088;50.240;2.696;2023-02-28T17:08:26;9.77;;;4.40;;
73776;SDS011;62088;50.240;2.696;2023-02-28T17:10:55;11.55;;;4.35;;
73776;SDS011;62088;50.240;2.696;2023-02-28T17:13:22;8.57;;;3.78;;
73776;SDS011;62088;50.240;2.696;2023-02-28T17:15:50;9.43;;;4.55;;
73776;SDS011;62088;50.240;2.696;2023-02-28T17:18:18;8.77;;;4.20;;
73776;SDS011;62088;50.240;2.696;2023-02-28T17:20:47;6.95;;;4.65;;
73776;SDS011;62088;50.240;2.696;2023-02-28T17:23:15;7.55;;;4.65;;
73776;SDS011;62088;50.240;2.696;2023-02-28T17:25:42;5.95;;;4.40;;